Time;durP1;ratioP1;P1;durP2;ratioP2;P2;SDS_P1;SDS_P2;PMS_P1;PMS_P2;Temp;Humidity;BMP_temperature;BMP_pressure;BME280_temperature;BME280_humidity;BME280_pressure;Samples;Min_cycle;Max_cycle;Signal;HPM_P1;HPM_P2
2021/12/17 00:00:05;;;;;;;;;;;8.00;99.90;;;;;;5070951;28;20383;-70
2021/12/17 00:03:32;;;;;;;;;;;7.90;99.90;;;;;;5070484;28;19920;-73
2021/12/17 00:05:52;;;;;;;;;;;7.90;99.90;;;;;;5070248;28;19924;-71
2021/12/17 00:08:21;;;;;;;;;;;8.00;99.90;;;;;;5069443;28;20299;-75
2021/12/17 00:10:51;;;;;;;;;;;8.00;99.90;;;;;;5089179;28;19927;-71
2021/12/17 00:13:20;;;;;;;;;;;7.90;99.90;;;;;;5086024;28;19931;-77
2021/12/17 00:15:55;;;;;;;;;;;7.90;99.90;;;;;;5069712;28;19926;-73
2021/12/17 00:18:43;;;;;;;;;;;7.90;99.90;;;;;;5067991;28;20311;-64
2021/12/17 00:48:48;;;;;;;;;;;7.90;99.90;;;;;;5065397;28;19931;-67
2021/12/17 00:53:52;;;;;;;;;;;7.90;99.90;;;;;;5052115;28;19924;-60
2021/12/17 00:56:19;;;;;;;;;;;7.90;99.90;;;;;;5068316;28;20185;-63
2021/12/17 00:58:47;;;;;;;;;;;7.90;99.90;;;;;;5069795;28;20299;-60
2021/12/17 01:01:15;;;;;;;;;;;7.90;99.90;;;;;;5069259;28;19920;-62
2021/12/17 01:03:43;;;;;;;;;;;7.90;99.90;;;;;;5061271;28;19921;-62
2021/12/17 01:06:11;;;;;;;;;;;7.90;99.90;;;;;;5066164;28;19920;-63
2021/12/17 01:08:38;;;;;;;;;;;7.90;99.90;;;;;;5068355;28;19943;-60
2021/12/17 01:11:10;;;;;;;;;;;7.90;99.90;;;;;;5068542;28;19931;-63
2021/12/17 01:14:04;;;;;;;;;;;7.80;99.90;;;;;;5068243;28;19924;-64
2021/12/17 01:16:57;;;;;;;;;;;7.80;99.90;;;;;;5061145;28;19927;-67
2021/12/17 01:20:16;;;;;;;;;;;7.80;99.90;;;;;;5059923;28;20003;-61
2021/12/17 01:22:59;;;;;;;;;;;7.80;99.90;;;;;;5083003;28;19931;-63
2021/12/17 01:25:42;;;;;;;;;;;7.80;99.90;;;;;;5067472;28;19921;-62
2021/12/17 01:43:12;;;;;;;;;;;7.70;99.90;;;;;;5049116;28;19920;-60
2021/12/17 01:45:41;;;;;;;;;;;7.70;99.90;;;;;;5066611;28;20384;-60
2021/12/17 01:48:14;;;;;;;;;;;7.50;99.90;;;;;;5073063;28;20371;-60
2021/12/17 01:56:37;;;;;;;;;;;7.50;99.90;;;;;;5067013;28;19924;-61
2021/12/17 01:59:29;;;;;;;;;;;7.50;99.90;;;;;;5067307;28;20414;-64
2021/12/17 02:02:01;;;;;;;;;;;7.50;99.90;;;;;;5080957;28;19925;-65
2021/12/17 02:04:32;;;;;;;;;;;7.50;99.90;;;;;;5056066;28;19920;-62
2021/12/17 02:07:00;;;;;;;;;;;7.40;99.90;;;;;;5074374;28;19920;-59
2021/12/17 02:20:46;;;;;;;;;;;7.30;99.90;;;;;;5069902;28;19980;-60
2021/12/17 02:28:43;;;;;;;;;;;7.20;99.90;;;;;;5075996;28;20087;-59
2021/12/17 02:29:02;;;;;;;;;;;7.10;99.90;;;;;;5066860;28;19927;-73
2021/12/17 02:31:33;;;;;;;;;;;7.10;99.90;;;;;;5040898;28;19921;-65
2021/12/17 02:34:09;;;;;;;;;;;7.10;99.90;;;;;;5051730;28;20395;-62
2021/12/17 02:36:38;;;;;;;;;;;7.10;99.90;;;;;;5086647;28;19935;-60
2021/12/17 02:47:20;;;;;;;;;;;6.90;99.90;;;;;;5068668;28;19920;-73
2021/12/17 02:49:48;;;;;;;;;;;6.90;99.90;;;;;;5052629;28;19920;-59
2021/12/17 02:52:16;;;;;;;;;;;6.80;99.90;;;;;;5070301;28;19927;-60
2021/12/17 02:54:43;;;;;;;;;;;6.70;99.90;;;;;;5070126;28;19931;-59
2021/12/17 02:57:11;;;;;;;;;;;6.60;99.90;;;;;;5069870;28;19920;-59
2021/12/17 02:59:39;;;;;;;;;;;6.50;99.90;;;;;;5069591;28;19926;-59
2021/12/17 03:02:08;;;;;;;;;;;6.50;99.90;;;;;;5070340;28;19927;-59
2021/12/17 03:04:38;;;;;;;;;;;6.40;99.90;;;;;;5070253;28;19920;-59
2021/12/17 03:07:09;;;;;;;;;;;6.40;99.90;;;;;;5069304;28;19943;-59
2021/12/17 03:12:31;;;;;;;;;;;6.30;99.90;;;;;;5049974;28;19921;-65
2021/12/17 03:15:10;;;;;;;;;;;6.20;99.90;;;;;;5066762;28;19921;-59
2021/12/17 03:25:55;;;;;;;;;;;6.00;99.90;;;;;;5087527;28;19924;-77
2021/12/17 03:28:22;;;;;;;;;;;6.00;99.90;;;;;;5070378;28;19929;-69
2021/12/17 03:30:51;;;;;;;;;;;5.90;99.90;;;;;;5073791;28;20396;-66
2021/12/17 03:33:20;;;;;;;;;;;5.90;99.90;;;;;;5057546;28;19928;-76
2021/12/17 03:35:50;;;;;;;;;;;5.90;99.90;;;;;;5071345;28;19920;-75
2021/12/17 03:38:18;;;;;;;;;;;5.90;99.90;;;;;;5073539;28;20314;-70
2021/12/17 03:40:46;;;;;;;;;;;5.90;99.90;;;;;;5073646;28;20197;-76
2021/12/17 03:43:30;;;;;;;;;;;5.80;99.90;;;;;;5106648;28;19920;-79
2021/12/17 03:45:59;;;;;;;;;;;5.80;99.90;;;;;;5054961;28;20321;-74
2021/12/17 03:48:30;;;;;;;;;;;5.70;99.90;;;;;;5070037;28;20287;-80
2021/12/17 03:50:57;;;;;;;;;;;5.50;99.90;;;;;;5087045;28;19920;-77
2021/12/17 03:53:25;;;;;;;;;;;5.60;99.90;;;;;;5054644;28;19924;-75
2021/12/17 03:55:53;;;;;;;;;;;5.50;99.90;;;;;;5087019;28;19921;-83
2021/12/17 03:58:20;;;;;;;;;;;5.50;99.90;;;;;;5053082;28;19920;-80
2021/12/17 04:00:48;;;;;;;;;;;5.40;99.90;;;;;;5053482;28;19920;-83
2021/12/17 04:03:16;;;;;;;;;;;5.30;99.90;;;;;;5086687;28;20421;-79
2021/12/17 04:05:53;;;;;;;;;;;5.30;99.90;;;;;;5052810;28;20277;-74
2021/12/17 04:08:39;;;;;;;;;;;5.20;99.90;;;;;;5054330;28;19921;-83
2021/12/17 04:11:25;;;;;;;;;;;5.10;99.90;;;;;;5054443;28;19927;-80
2021/12/17 04:13:59;;;;;;;;;;;5.00;99.90;;;;;;5052968;28;19921;-80
2021/12/17 04:16:33;;;;;;;;;;;4.90;99.90;;;;;;5053042;28;19921;-80
2021/12/17 04:19:00;;;;;;;;;;;4.80;99.90;;;;;;5053790;28;19908;-83
2021/12/17 04:21:31;;;;;;;;;;;4.80;99.90;;;;;;5052810;28;20285;-82
2021/12/17 04:23:59;;;;;;;;;;;4.70;99.90;;;;;;5053009;28;19931;-84
2021/12/17 04:26:27;;;;;;;;;;;4.60;99.90;;;;;;5064150;28;19940;-83
2021/12/17 04:29:06;;;;;;;;;;;4.60;99.90;;;;;;5086111;28;19920;-83
2021/12/17 04:31:34;;;;;;;;;;;4.50;99.90;;;;;;5051800;28;19921;-84
2021/12/17 04:34:01;;;;;;;;;;;4.40;99.90;;;;;;5085923;28;19921;-76
2021/12/17 04:36:34;;;;;;;;;;;4.40;99.90;;;;;;5036365;28;19921;-73
2021/12/17 04:39:09;;;;;;;;;;;4.30;99.90;;;;;;5086053;28;19928;-79
2021/12/17 04:44:27;;;;;;;;;;;4.20;99.90;;;;;;5035737;28;19921;-80
2021/12/17 04:58:03;;;;;;;;;;;4.00;99.90;;;;;;5085651;28;19921;-78
2021/12/17 05:00:32;;;;;;;;;;;3.90;99.90;;;;;;5052236;28;19920;-76
2021/12/17 05:03:07;;;;;;;;;;;3.80;99.90;;;;;;5053350;28;19920;-85
2021/12/17 05:05:37;;;;;;;;;;;3.70;99.90;;;;;;5051884;28;20503;-84
2021/12/17 05:08:17;;;;;;;;;;;3.70;99.90;;;;;;5052183;28;19920;-84
2021/12/17 05:11:17;;;;;;;;;;;3.70;99.90;;;;;;5051608;28;19932;-83
2021/12/17 05:19:40;;;;;;;;;;;3.50;99.90;;;;;;5070342;28;19921;-83
2021/12/17 05:22:10;;;;;;;;;;;3.40;99.90;;;;;;5105434;28;19921;-81
2021/12/17 05:24:39;;;;;;;;;;;3.40;99.90;;;;;;5091766;28;19928;-78
2021/12/17 05:27:07;;;;;;;;;;;3.40;99.90;;;;;;5068446;28;19928;-82
2021/12/17 05:29:43;;;;;;;;;;;3.40;99.90;;;;;;5051795;28;19920;-81
2021/12/17 05:32:11;;;;;;;;;;;3.40;99.90;;;;;;5052948;28;19921;-84
2021/12/17 05:34:39;;;;;;;;;;;3.30;99.90;;;;;;5035243;28;19921;-64
2021/12/17 05:37:09;;;;;;;;;;;3.30;99.90;;;;;;5052986;28;19920;-62
2021/12/17 05:39:37;;;;;;;;;;;3.20;99.90;;;;;;5071161;28;19920;-60
2021/12/17 05:42:06;;;;;;;;;;;3.20;99.90;;;;;;5071019;28;20390;-64
2021/12/17 05:44:39;;;;;;;;;;;3.20;99.90;;;;;;5071460;28;19920;-67
2021/12/17 05:47:07;;;;;;;;;;;3.10;99.90;;;;;;5048007;28;20833;-61
2021/12/17 05:49:34;;;;;;;;;;;3.10;99.90;;;;;;5098492;28;19924;-68
2021/12/17 05:52:02;;;;;;;;;;;3.00;99.90;;;;;;5068112;28;20364;-64
2021/12/17 05:54:32;;;;;;;;;;;3.00;99.90;;;;;;5068811;28;19921;-64
2021/12/17 05:57:01;;;;;;;;;;;3.00;99.90;;;;;;5051216;28;19927;-68
2021/12/17 05:59:34;;;;;;;;;;;2.90;99.90;;;;;;5068761;28;19927;-64
2021/12/17 06:02:09;;;;;;;;;;;2.90;99.90;;;;;;5060924;28;19935;-63
2021/12/17 06:04:41;;;;;;;;;;;2.80;99.90;;;;;;5059854;28;19927;-63
2021/12/17 06:07:08;;;;;;;;;;;2.80;99.90;;;;;;5062548;28;19925;-61
2021/12/17 06:09:39;;;;;;;;;;;2.80;99.90;;;;;;5066417;28;19928;-64
2021/12/17 06:12:12;;;;;;;;;;;2.80;99.90;;;;;;5064118;28;19927;-61
2021/12/17 06:14:40;;;;;;;;;;;2.80;99.90;;;;;;5067559;28;19932;-71
2021/12/17 06:17:08;;;;;;;;;;;2.70;99.90;;;;;;5060826;28;20399;-61
2021/12/17 06:19:43;;;;;;;;;;;2.70;99.90;;;;;;5062455;28;19932;-61
2021/12/17 06:22:12;;;;;;;;;;;2.60;99.90;;;;;;5063382;28;19920;-60
2021/12/17 06:24:45;;;;;;;;;;;2.60;99.90;;;;;;5055983;28;20396;-67
2021/12/17 06:27:15;;;;;;;;;;;2.50;99.90;;;;;;5096595;28;19928;-67
2021/12/17 06:29:42;;;;;;;;;;;2.50;99.90;;;;;;5064161;28;19920;-67
2021/12/17 06:32:14;;;;;;;;;;;2.50;99.90;;;;;;5073629;28;19928;-61
2021/12/17 06:34:42;;;;;;;;;;;2.50;99.90;;;;;;5072786;28;20379;-64
2021/12/17 06:37:15;;;;;;;;;;;2.40;99.90;;;;;;5076280;28;19920;-60
2021/12/17 06:39:44;;;;;;;;;;;2.40;99.90;;;;;;5066939;28;19927;-63
2021/12/17 06:42:11;;;;;;;;;;;2.40;99.90;;;;;;5067938;28;19935;-61
2021/12/17 06:44:40;;;;;;;;;;;2.30;99.90;;;;;;5065979;28;20371;-69
2021/12/17 06:47:32;;;;;;;;;;;2.30;99.90;;;;;;5072405;28;19924;-61
2021/12/17 06:59:04;;;;;;;;;;;2.20;99.90;;;;;;5079934;28;20237;-80
2021/12/17 07:10:50;;;;;;;;;;;2.10;99.90;;;;;;5071101;28;19921;-68
2021/12/17 07:20:03;;;;;;;;;;;2.00;99.90;;;;;;5063427;28;19920;-81
2021/12/17 07:33:33;;;;;;;;;;;1.90;99.90;;;;;;5058625;28;20292;-71
2021/12/17 07:36:23;;;;;;;;;;;1.90;99.90;;;;;;5067512;28;19920;-66
2021/12/17 07:38:58;;;;;;;;;;;1.90;99.90;;;;;;5082111;28;19920;-79
2021/12/17 07:41:47;;;;;;;;;;;1.80;99.90;;;;;;5090055;28;19920;-75
2021/12/17 07:44:33;;;;;;;;;;;1.90;99.90;;;;;;5051680;28;19921;-84
2021/12/17 07:47:21;;;;;;;;;;;1.80;99.90;;;;;;5054055;28;20292;-80
2021/12/17 07:50:33;;;;;;;;;;;1.80;99.90;;;;;;5069472;28;19924;-62
2021/12/17 07:53:13;;;;;;;;;;;1.80;99.90;;;;;;5069498;28;20376;-65
2021/12/17 07:55:49;;;;;;;;;;;1.70;99.90;;;;;;5067076;28;19924;-63
2021/12/17 07:58:21;;;;;;;;;;;1.70;99.90;;;;;;5053275;28;20280;-60
2021/12/17 08:00:49;;;;;;;;;;;1.70;99.90;;;;;;5044468;28;19920;-60
2021/12/17 08:03:18;;;;;;;;;;;1.70;99.90;;;;;;5057649;28;19920;-61
2021/12/17 08:06:05;;;;;;;;;;;1.70;99.90;;;;;;5066442;28;19943;-63
2021/12/17 08:08:52;;;;;;;;;;;1.70;99.90;;;;;;5053611;28;19926;-65
2021/12/17 08:11:27;;;;;;;;;;;1.70;99.90;;;;;;5069833;28;20518;-66
2021/12/17 08:13:57;;;;;;;;;;;1.70;99.90;;;;;;5054659;28;19928;-61
2021/12/17 08:25:40;;;;;;;;;;;1.80;99.90;;;;;;5069532;28;20319;-60
2021/12/17 08:27:43;;;;;;;;;;;1.90;99.90;;;;;;5063568;28;19947;-61
2021/12/17 08:30:25;;;;;;;;;;;1.90;99.90;;;;;;5049157;28;19928;-60
2021/12/17 08:33:05;;;;;;;;;;;2.00;99.90;;;;;;5090924;28;19928;-62
2021/12/17 08:35:33;;;;;;;;;;;2.00;99.90;;;;;;5069107;28;19920;-61
2021/12/17 08:38:08;;;;;;;;;;;2.00;99.90;;;;;;5103032;28;20280;-62
2021/12/17 08:40:37;;;;;;;;;;;2.00;99.90;;;;;;5070168;28;19920;-61
2021/12/17 08:43:06;;;;;;;;;;;2.00;99.90;;;;;;5064627;28;19921;-60
2021/12/17 08:45:42;;;;;;;;;;;2.00;99.90;;;;;;5048757;28;19921;-61
2021/12/17 08:48:29;;;;;;;;;;;2.00;99.90;;;;;;5061855;28;19930;-63
2021/12/17 08:52:03;;;;;;;;;;;2.00;99.90;;;;;;5047731;28;19924;-60
2021/12/17 08:54:31;;;;;;;;;;;2.00;99.90;;;;;;5047366;28;19928;-61
2021/12/17 08:57:01;;;;;;;;;;;2.00;99.90;;;;;;5061716;28;19921;-65
2021/12/17 08:59:33;;;;;;;;;;;2.00;99.90;;;;;;5052054;28;19928;-62
2021/12/17 09:02:24;;;;;;;;;;;2.00;99.90;;;;;;5072083;28;19921;-62
2021/12/17 09:05:19;;;;;;;;;;;2.00;99.90;;;;;;5068060;28;20245;-65
2021/12/17 09:07:52;;;;;;;;;;;2.00;99.90;;;;;;5068479;28;19924;-61
2021/12/17 09:10:39;;;;;;;;;;;2.10;99.90;;;;;;5068357;28;19927;-65
2021/12/17 09:13:08;;;;;;;;;;;2.10;99.90;;;;;;5064130;28;19925;-66
2021/12/17 09:15:50;;;;;;;;;;;2.10;99.90;;;;;;5045780;28;19927;-67
2021/12/17 09:18:29;;;;;;;;;;;2.10;99.90;;;;;;5059730;28;19935;-61
2021/12/17 09:21:06;;;;;;;;;;;2.10;99.90;;;;;;5066019;28;19927;-69
2021/12/17 09:23:56;;;;;;;;;;;2.10;99.90;;;;;;5067805;28;19935;-63
2021/12/17 09:26:33;;;;;;;;;;;2.10;99.90;;;;;;5068085;28;19920;-70
2021/12/17 09:29:02;;;;;;;;;;;2.20;99.90;;;;;;5041511;28;20372;-62
2021/12/17 09:31:36;;;;;;;;;;;2.20;99.90;;;;;;5049655;28;19921;-62
2021/12/17 09:34:04;;;;;;;;;;;2.30;99.90;;;;;;5065465;28;19927;-61
2021/12/17 09:36:33;;;;;;;;;;;2.30;99.90;;;;;;5069413;28;19920;-68
2021/12/17 09:39:02;;;;;;;;;;;2.40;99.90;;;;;;5069180;28;20042;-68
2021/12/17 09:41:30;;;;;;;;;;;2.40;99.90;;;;;;5069468;28;19920;-71
2021/12/17 09:43:58;;;;;;;;;;;2.40;99.90;;;;;;5060145;28;20421;-85
2021/12/17 09:46:25;;;;;;;;;;;2.50;99.90;;;;;;5049381;28;19924;-67
2021/12/17 09:48:54;;;;;;;;;;;2.60;99.90;;;;;;5064281;28;20324;-84
2021/12/17 09:51:22;;;;;;;;;;;2.60;99.90;;;;;;5067969;28;19999;-81
2021/12/17 09:53:50;;;;;;;;;;;2.70;99.90;;;;;;5067416;28;19927;-82
2021/12/17 09:56:17;;;;;;;;;;;2.80;99.90;;;;;;5068658;28;19927;-83
2021/12/17 09:58:45;;;;;;;;;;;2.90;99.90;;;;;;5062993;28;19920;-77
2021/12/17 10:01:12;;;;;;;;;;;3.00;99.90;;;;;;5047567;28;19921;-80
2021/12/17 10:03:40;;;;;;;;;;;3.10;99.90;;;;;;5062148;28;20363;-83
2021/12/17 10:06:19;;;;;;;;;;;3.20;99.90;;;;;;5067679;28;19928;-64
2021/12/17 10:08:51;;;;;;;;;;;3.30;99.90;;;;;;5067430;28;19920;-80
2021/12/17 10:11:20;;;;;;;;;;;3.40;99.90;;;;;;5068733;28;19924;-80
2021/12/17 10:13:48;;;;;;;;;;;3.50;99.90;;;;;;5061765;28;19924;-68
2021/12/17 10:16:18;;;;;;;;;;;3.50;99.90;;;;;;5047622;28;19921;-66
2021/12/17 10:18:47;;;;;;;;;;;3.70;99.90;;;;;;5061040;28;19924;-63
2021/12/17 10:21:18;;;;;;;;;;;3.70;99.90;;;;;;5068558;28;19924;-75
2021/12/17 10:23:47;;;;;;;;;;;3.80;99.90;;;;;;5068193;28;20364;-62
2021/12/17 10:26:16;;;;;;;;;;;3.80;99.90;;;;;;5068573;28;20390;-61
2021/12/17 10:29:04;;;;;;;;;;;3.80;99.90;;;;;;5061913;28;20305;-62
2021/12/17 10:31:35;;;;;;;;;;;3.90;99.90;;;;;;5048515;28;20316;-62
2021/12/17 10:34:04;;;;;;;;;;;3.90;99.90;;;;;;5065439;28;19921;-63
2021/12/17 10:36:36;;;;;;;;;;;4.00;99.90;;;;;;5067110;28;20364;-62
2021/12/17 10:39:21;;;;;;;;;;;4.10;99.90;;;;;;5066990;28;20399;-62
2021/12/17 10:41:49;;;;;;;;;;;4.20;99.90;;;;;;5067176;28;20003;-62
2021/12/17 10:44:21;;;;;;;;;;;4.20;99.90;;;;;;5060239;28;19920;-62
2021/12/17 10:47:06;;;;;;;;;;;4.30;99.90;;;;;;5048493;28;19928;-62
2021/12/17 10:49:33;;;;;;;;;;;4.40;99.90;;;;;;5068496;28;19921;-61
2021/12/17 10:52:06;;;;;;;;;;;4.50;99.90;;;;;;5066941;28;19920;-61
2021/12/17 10:54:34;;;;;;;;;;;4.60;99.90;;;;;;5067129;28;19935;-61
2021/12/17 10:57:06;;;;;;;;;;;4.80;99.90;;;;;;5068354;28;19921;-61
2021/12/17 10:59:35;;;;;;;;;;;4.90;99.90;;;;;;5059431;28;19928;-61
2021/12/17 11:02:06;;;;;;;;;;;5.00;99.90;;;;;;5048081;28;20415;-62
2021/12/17 11:04:36;;;;;;;;;;;5.10;99.90;;;;;;5068347;28;19920;-61
2021/12/17 11:07:05;;;;;;;;;;;5.20;99.90;;;;;;5066860;28;19925;-62
2021/12/17 11:09:34;;;;;;;;;;;5.20;99.90;;;;;;5068384;28;19924;-61
2021/12/17 11:12:14;;;;;;;;;;;5.30;99.90;;;;;;5068225;28;20398;-61
2021/12/17 11:14:42;;;;;;;;;;;5.40;99.90;;;;;;5058823;28;19920;-66
2021/12/17 11:17:10;;;;;;;;;;;5.40;99.90;;;;;;5047305;28;19927;-62
2021/12/17 11:19:45;;;;;;;;;;;5.50;99.90;;;;;;5068203;28;19931;-68
2021/12/17 11:22:12;;;;;;;;;;;5.50;99.90;;;;;;5067637;28;19932;-67
2021/12/17 11:24:40;;;;;;;;;;;5.60;99.90;;;;;;5068115;28;19925;-65
2021/12/17 11:27:07;;;;;;;;;;;5.60;99.90;;;;;;5066793;28;20197;-64
2021/12/17 11:29:35;;;;;;;;;;;5.70;99.90;;;;;;5060232;28;19927;-67
2021/12/17 11:32:04;;;;;;;;;;;5.70;99.90;;;;;;5044316;28;19924;-63
2021/12/17 11:34:33;;;;;;;;;;;5.80;99.90;;;;;;5064758;28;19935;-66
2021/12/17 11:37:01;;;;;;;;;;;5.80;99.90;;;;;;5066245;28;20375;-65
2021/12/17 11:39:31;;;;;;;;;;;5.90;99.90;;;;;;5067873;28;19921;-71
2021/12/17 11:42:18;;;;;;;;;;;6.00;99.90;;;;;;5071416;28;20395;-62
2021/12/17 11:45:22;;;;;;;;;;;6.00;99.90;;;;;;5066357;28;19921;-71
2021/12/17 11:47:40;;;;;;;;;;;6.10;99.90;;;;;;5055379;28;19920;-69
2021/12/17 11:50:10;;;;;;;;;;;6.10;99.90;;;;;;5071246;28;20257;-71
2021/12/17 11:52:38;;;;;;;;;;;6.20;99.90;;;;;;5070880;28;19932;-68
2021/12/17 11:55:24;;;;;;;;;;;6.30;99.90;;;;;;5071196;28;19924;-70
2021/12/17 11:57:54;;;;;;;;;;;6.30;99.90;;;;;;5071239;28;19925;-68
2021/12/17 12:00:23;;;;;;;;;;;6.30;99.90;;;;;;5057593;28;19920;-65
2021/12/17 12:02:53;;;;;;;;;;;6.40;99.90;;;;;;5057833;28;19920;-68
2021/12/17 12:05:34;;;;;;;;;;;6.40;99.90;;;;;;5070063;28;19920;-71
2021/12/17 12:08:21;;;;;;;;;;;6.50;99.90;;;;;;5069783;28;19920;-70
2021/12/17 12:11:04;;;;;;;;;;;6.60;99.90;;;;;;5069731;28;19921;-71
2021/12/17 12:13:39;;;;;;;;;;;6.60;99.90;;;;;;5069495;28;19920;-70
2021/12/17 12:16:08;;;;;;;;;;;6.60;99.90;;;;;;5065879;28;19924;-68
2021/12/17 12:19:02;;;;;;;;;;;6.70;99.90;;;;;;5062024;28;19943;-71
2021/12/17 12:21:33;;;;;;;;;;;6.80;99.90;;;;;;5063614;28;19924;-71
2021/12/17 12:24:11;;;;;;;;;;;6.80;99.90;;;;;;5070453;28;20299;-69
2021/12/17 12:26:49;;;;;;;;;;;6.80;99.90;;;;;;5070847;28;19924;-71
2021/12/17 12:29:18;;;;;;;;;;;6.90;99.90;;;;;;5067371;28;19920;-71
2021/12/17 12:31:47;;;;;;;;;;;6.90;99.90;;;;;;5050396;28;19925;-69
2021/12/17 12:34:16;;;;;;;;;;;7.00;99.90;;;;;;5068827;28;19920;-71
2021/12/17 12:37:04;;;;;;;;;;;7.00;99.90;;;;;;5069291;28;19920;-72
2021/12/17 12:39:31;;;;;;;;;;;7.10;99.90;;;;;;5070318;28;19928;-70
2021/12/17 12:42:01;;;;;;;;;;;7.10;99.90;;;;;;5070222;28;19920;-71
2021/12/17 12:44:47;;;;;;;;;;;7.10;99.90;;;;;;5067352;28;19924;-70
2021/12/17 12:47:20;;;;;;;;;;;7.20;99.90;;;;;;5051234;28;19927;-70
2021/12/17 12:49:49;;;;;;;;;;;7.20;99.90;;;;;;5069155;28;19921;-71
2021/12/17 12:52:22;;;;;;;;;;;7.20;99.90;;;;;;5067738;28;19924;-68
2021/12/17 12:54:51;;;;;;;;;;;7.20;99.90;;;;;;5070300;28;19921;-63
2021/12/17 12:57:24;;;;;;;;;;;7.20;99.90;;;;;;5070343;28;19920;-68
2021/12/17 12:59:53;;;;;;;;;;;7.30;99.90;;;;;;5065048;28;19925;-60
2021/12/17 13:02:21;;;;;;;;;;;7.30;99.90;;;;;;5051962;28;19927;-62
2021/12/17 13:04:51;;;;;;;;;;;7.30;99.90;;;;;;5070000;28;19928;-61
2021/12/17 13:07:30;;;;;;;;;;;7.30;99.90;;;;;;5069963;28;19944;-60
2021/12/17 13:10:05;;;;;;;;;;;7.30;99.90;;;;;;5069966;28;19924;-61
2021/12/17 13:12:35;;;;;;;;;;;7.30;99.90;;;;;;5069887;28;19920;-60
2021/12/17 13:15:31;;;;;;;;;;;7.30;99.90;;;;;;5064017;28;19921;-64
2021/12/17 13:23:22;;;;;;;;;;;7.30;99.90;;;;;;5069674;28;19920;-61
2021/12/17 13:26:23;;;;;;;;;;;7.30;99.90;;;;;;5068165;28;20275;-64
2021/12/17 13:29:00;;;;;;;;;;;7.30;99.90;;;;;;5046370;28;19921;-61
2021/12/17 13:31:48;;;;;;;;;;;7.30;99.90;;;;;;5052214;28;19931;-61
2021/12/17 13:34:15;;;;;;;;;;;7.30;99.90;;;;;;5066877;28;20170;-61
2021/12/17 13:36:50;;;;;;;;;;;7.30;99.90;;;;;;5069329;28;19931;-61
2021/12/17 13:39:19;;;;;;;;;;;7.30;99.90;;;;;;5067843;28;20367;-63
2021/12/17 13:41:46;;;;;;;;;;;7.20;99.90;;;;;;5069523;28;19936;-62
2021/12/17 13:44:41;;;;;;;;;;;7.30;99.90;;;;;;5068750;28;19920;-61
2021/12/17 13:47:08;;;;;;;;;;;7.30;99.90;;;;;;5040552;28;19925;-61
2021/12/17 13:49:36;;;;;;;;;;;7.20;99.90;;;;;;5068725;28;19940;-65
2021/12/17 13:52:04;;;;;;;;;;;7.20;99.90;;;;;;5069225;28;19920;-60
2021/12/17 13:54:31;;;;;;;;;;;7.20;99.90;;;;;;5068555;28;19920;-61
2021/12/17 13:57:02;;;;;;;;;;;7.20;99.90;;;;;;5068827;28;19920;-61
2021/12/17 13:59:30;;;;;;;;;;;7.20;99.90;;;;;;5067459;28;19924;-63
2021/12/17 14:01:58;;;;;;;;;;;7.20;99.90;;;;;;5049545;28;19920;-60
2021/12/17 14:04:25;;;;;;;;;;;7.20;99.90;;;;;;5066165;28;19927;-61
2021/12/17 14:06:53;;;;;;;;;;;7.20;99.90;;;;;;5066119;28;19943;-61
2021/12/17 14:09:21;;;;;;;;;;;7.10;99.90;;;;;;5065514;28;19943;-61
2021/12/17 14:11:49;;;;;;;;;;;7.20;99.90;;;;;;5067930;28;19927;-61
2021/12/17 14:14:37;;;;;;;;;;;7.20;99.90;;;;;;5068808;28;20372;-60
2021/12/17 14:17:05;;;;;;;;;;;7.10;99.90;;;;;;5049380;28;19932;-61
2021/12/17 14:19:41;;;;;;;;;;;7.10;99.90;;;;;;5067822;28;19928;-61
2021/12/17 14:22:19;;;;;;;;;;;7.10;99.90;;;;;;5068470;28;19931;-63
2021/12/17 14:24:46;;;;;;;;;;;7.10;99.90;;;;;;5068651;28;19931;-62
2021/12/17 14:27:14;;;;;;;;;;;7.10;99.90;;;;;;5067184;28;19927;-62
2021/12/17 14:29:41;;;;;;;;;;;7.10;99.90;;;;;;5050529;28;20410;-61
2021/12/17 14:32:14;;;;;;;;;;;7.00;99.90;;;;;;5049187;28;19925;-60
2021/12/17 14:34:42;;;;;;;;;;;7.00;99.90;;;;;;5068567;28;19920;-61
2021/12/17 14:37:10;;;;;;;;;;;7.00;99.90;;;;;;5067381;28;19928;-60
2021/12/17 14:39:43;;;;;;;;;;;6.90;99.90;;;;;;5068479;28;19932;-61
2021/12/17 14:42:12;;;;;;;;;;;6.90;99.90;;;;;;5068246;28;19994;-64
2021/12/17 14:44:53;;;;;;;;;;;6.90;99.90;;;;;;5067435;28;19921;-61
2021/12/17 14:47:48;;;;;;;;;;;6.80;99.90;;;;;;5049720;28;19921;-60
2021/12/17 15:01:37;;;;;;;;;;;6.60;99.90;;;;;;5054400;28;19928;-60
2021/12/17 15:04:04;;;;;;;;;;;6.60;99.90;;;;;;5063502;28;20356;-62
2021/12/17 15:06:32;;;;;;;;;;;6.60;99.90;;;;;;5050180;28;19928;-71
2021/12/17 15:09:01;;;;;;;;;;;6.50;99.90;;;;;;5068018;28;19921;-71
2021/12/17 15:11:36;;;;;;;;;;;6.50;99.90;;;;;;5068478;28;20240;-70
2021/12/17 15:14:04;;;;;;;;;;;6.50;99.90;;;;;;5067911;28;19927;-71
2021/12/17 15:16:31;;;;;;;;;;;6.50;99.90;;;;;;5042569;28;19931;-71
2021/12/17 15:18:59;;;;;;;;;;;6.50;99.90;;;;;;5066323;28;19931;-69
2021/12/17 15:21:28;;;;;;;;;;;6.50;99.90;;;;;;5072126;28;19924;-70
2021/12/17 15:23:55;;;;;;;;;;;6.50;99.90;;;;;;5071873;28;19931;-69
2021/12/17 15:26:23;;;;;;;;;;;6.50;99.90;;;;;;5071283;28;19950;-63
2021/12/17 15:28:51;;;;;;;;;;;6.50;99.90;;;;;;5071376;28;19920;-63
2021/12/17 15:31:33;;;;;;;;;;;6.50;99.90;;;;;;5046088;28;19927;-62
2021/12/17 15:34:01;;;;;;;;;;;6.50;99.90;;;;;;5066244;28;19920;-63
2021/12/17 15:36:28;;;;;;;;;;;6.50;99.90;;;;;;5071041;28;19931;-67
2021/12/17 15:38:56;;;;;;;;;;;6.50;99.90;;;;;;5071417;28;20394;-66
2021/12/17 15:41:23;;;;;;;;;;;6.50;99.90;;;;;;5071268;28;19924;-60
2021/12/17 15:43:52;;;;;;;;;;;6.50;99.90;;;;;;5070926;28;19920;-60
2021/12/17 15:46:20;;;;;;;;;;;6.50;99.90;;;;;;5063065;28;19995;-60
2021/12/17 15:48:47;;;;;;;;;;;6.50;99.90;;;;;;5063778;28;19920;-60
2021/12/17 15:51:15;;;;;;;;;;;6.50;99.90;;;;;;5069688;28;19920;-61
2021/12/17 15:53:42;;;;;;;;;;;6.50;99.90;;;;;;5070842;28;19921;-60
2021/12/17 15:56:10;;;;;;;;;;;6.50;99.90;;;;;;5070903;28;19920;-60
2021/12/17 15:58:37;;;;;;;;;;;6.50;99.90;;;;;;5069718;28;20376;-60
2021/12/17 16:01:05;;;;;;;;;;;6.50;99.90;;;;;;5064168;28;19928;-60
2021/12/17 16:03:35;;;;;;;;;;;6.50;99.90;;;;;;5061720;28;19931;-60
2021/12/17 16:06:05;;;;;;;;;;;6.50;99.90;;;;;;5070616;28;19921;-60
2021/12/17 16:08:36;;;;;;;;;;;6.50;99.90;;;;;;5070518;28;19920;-61
2021/12/17 16:22:03;;;;;;;;;;;6.40;99.90;;;;;;5070570;28;19933;-61
2021/12/17 16:24:31;;;;;;;;;;;6.40;99.90;;;;;;5070493;28;19920;-63
2021/12/17 16:26:58;;;;;;;;;;;6.40;99.90;;;;;;5069300;28;19920;-65
2021/12/17 16:29:26;;;;;;;;;;;6.40;99.90;;;;;;5070209;28;19933;-66
2021/12/17 16:31:53;;;;;;;;;;;6.30;99.90;;;;;;5068704;28;19927;-65
2021/12/17 16:34:20;;;;;;;;;;;6.30;99.90;;;;;;5068994;28;19924;-63
2021/12/17 16:36:49;;;;;;;;;;;6.30;99.90;;;;;;5070614;28;19925;-61
2021/12/17 16:39:17;;;;;;;;;;;6.30;99.90;;;;;;5068958;28;19920;-62
2021/12/17 16:41:44;;;;;;;;;;;6.30;99.90;;;;;;5070383;28;20291;-62
2021/12/17 16:44:15;;;;;;;;;;;6.30;99.90;;;;;;5070145;28;20375;-61
2021/12/17 16:49:11;;;;;;;;;;;6.20;99.90;;;;;;5065801;28;20351;-62
2021/12/17 16:51:39;;;;;;;;;;;6.20;99.90;;;;;;5070313;28;19927;-60
2021/12/17 16:54:07;;;;;;;;;;;6.20;99.90;;;;;;5069962;28;19928;-63
2021/12/17 16:56:35;;;;;;;;;;;6.20;99.90;;;;;;5068810;28;19928;-60
2021/12/17 16:59:03;;;;;;;;;;;6.20;99.90;;;;;;5061719;28;20401;-66
2021/12/17 17:01:34;;;;;;;;;;;6.20;99.90;;;;;;5060517;28;20364;-60
2021/12/17 17:04:01;;;;;;;;;;;6.10;99.90;;;;;;5060659;28;20299;-63
2021/12/17 17:06:33;;;;;;;;;;;6.20;99.90;;;;;;5066494;28;19926;-63
2021/12/17 17:09:06;;;;;;;;;;;6.20;99.90;;;;;;5066207;28;19932;-62
2021/12/17 17:11:39;;;;;;;;;;;6.10;99.90;;;;;;5048691;28;20288;-61
2021/12/17 17:14:06;;;;;;;;;;;6.20;99.90;;;;;;5064668;28;20259;-61
2021/12/17 17:16:36;;;;;;;;;;;6.20;99.90;;;;;;5062478;28;19927;-60
2021/12/17 17:19:04;;;;;;;;;;;6.20;99.90;;;;;;5061112;28;19925;-61
2021/12/17 17:21:31;;;;;;;;;;;6.10;99.90;;;;;;5066015;28;19920;-61
2021/12/17 17:24:00;;;;;;;;;;;6.20;99.90;;;;;;5064673;28;20384;-61
2021/12/17 17:26:28;;;;;;;;;;;6.20;99.90;;;;;;5065736;28;19928;-60
2021/12/17 17:28:56;;;;;;;;;;;6.20;99.90;;;;;;5064589;28;20284;-60
2021/12/17 17:31:24;;;;;;;;;;;6.10;99.90;;;;;;5064523;28;19924;-60
2021/12/17 17:33:51;;;;;;;;;;;6.20;99.90;;;;;;5058787;28;19920;-61
2021/12/17 17:36:21;;;;;;;;;;;6.10;99.90;;;;;;5064559;28;19924;-61
2021/12/17 17:38:50;;;;;;;;;;;6.10;99.90;;;;;;5065129;28;19924;-61
2021/12/17 17:41:19;;;;;;;;;;;6.20;99.90;;;;;;5064919;28;19921;-61
2021/12/17 17:43:47;;;;;;;;;;;6.10;99.90;;;;;;5065404;28;19927;-63
2021/12/17 17:46:14;;;;;;;;;;;6.10;99.90;;;;;;5064884;28;20284;-60
2021/12/17 17:48:42;;;;;;;;;;;6.10;99.90;;;;;;5056311;28;20407;-60
2021/12/17 17:51:10;;;;;;;;;;;6.10;99.90;;;;;;5065624;28;19928;-60
2021/12/17 17:53:38;;;;;;;;;;;6.10;99.90;;;;;;5064024;28;19920;-60
2021/12/17 17:56:05;;;;;;;;;;;6.10;99.90;;;;;;5064311;28;19925;-60
2021/12/17 17:58:34;;;;;;;;;;;6.10;99.90;;;;;;5065040;28;19920;-60
2021/12/17 18:01:02;;;;;;;;;;;6.00;99.90;;;;;;5064225;28;20094;-60